createdAt,value
2019-03-20T00:01:44.118Z,17.27
2019-03-20T00:04:12.496Z,15.60
2019-03-20T00:06:40.808Z,10.13
2019-03-20T00:09:09.061Z,10.37
2019-03-20T00:11:37.296Z,11.43
2019-03-20T00:14:05.515Z,12.00
2019-03-20T00:16:33.786Z,12.67
2019-03-20T00:19:01.997Z,10.83
2019-03-20T00:21:30.244Z,12.10
2019-03-20T00:23:58.461Z,13.70
2019-03-20T00:26:26.700Z,11.03
2019-03-20T00:28:55.189Z,17.40
2019-03-20T00:31:23.473Z,10.23
2019-03-20T00:33:51.725Z,12.23
2019-03-20T00:36:20.002Z,18.20
2019-03-20T00:38:48.218Z,12.20
2019-03-20T00:41:16.468Z,11.67
2019-03-20T00:43:44.726Z,22.73
2019-03-20T00:46:12.964Z,15.70
2019-03-20T00:48:41.215Z,10.43
2019-03-20T00:51:09.456Z,15.13
2019-03-20T00:53:37.669Z,8.17
2019-03-20T00:56:05.946Z,7.80
2019-03-20T00:58:34.170Z,13.10
2019-03-20T01:01:02.485Z,16.13
2019-03-20T01:03:30.708Z,12.10
2019-03-20T01:05:58.924Z,10.37
2019-03-20T01:08:27.172Z,12.87
2019-03-20T01:10:55.393Z,9.10
2019-03-20T01:13:23.750Z,10.07
2019-03-20T01:15:51.951Z,10.37
2019-03-20T01:18:22.379Z,16.73
2019-03-20T01:20:50.076Z,48.53
2019-03-20T01:23:18.396Z,30.20
2019-03-20T01:25:46.616Z,35.00
2019-03-20T01:28:14.864Z,26.23
2019-03-20T01:30:43.075Z,17.97
2019-03-20T01:33:14.464Z,12.70
2019-03-20T01:35:42.704Z,15.97
2019-03-20T01:38:11.157Z,13.80
2019-03-20T01:40:40.571Z,14.70
2019-03-20T01:43:09.281Z,10.90
2019-03-20T01:45:37.535Z,9.43
2019-03-20T01:48:05.773Z,9.43
2019-03-20T01:50:34.026Z,10.67
2019-03-20T01:53:02.339Z,13.67
2019-03-20T01:55:30.564Z,13.17
2019-03-20T01:57:58.806Z,12.43
2019-03-20T02:00:27.046Z,8.73
2019-03-20T02:02:55.305Z,14.43
2019-03-20T02:05:34.657Z,10.90
2019-03-20T02:07:53.467Z,11.00
2019-03-20T02:10:21.680Z,12.53
2019-03-20T02:12:49.931Z,9.63
2019-03-20T02:15:18.510Z,10.10
2019-03-20T02:17:46.835Z,16.97
2019-03-20T02:20:16.594Z,11.17
2019-03-20T02:22:44.837Z,9.37
2019-03-20T02:25:13.355Z,14.10
2019-03-20T02:27:41.574Z,14.17
2019-03-20T02:30:17.052Z,11.50
2019-03-20T02:32:45.338Z,8.60
2019-03-20T02:35:13.658Z,9.73
2019-03-20T02:37:41.885Z,11.50
2019-03-20T02:40:11.672Z,21.73
2019-03-20T02:42:39.901Z,9.07
2019-03-20T02:45:09.525Z,8.27
2019-03-20T02:47:37.912Z,9.10
2019-03-20T02:50:07.338Z,16.97
2019-03-20T02:52:35.621Z,13.40
2019-03-20T02:55:04.557Z,9.83
2019-03-20T02:57:32.784Z,8.37
2019-03-20T03:00:01.028Z,8.00
2019-03-20T03:02:29.257Z,10.03
2019-03-20T03:05:00.450Z,7.57
2019-03-20T03:07:28.636Z,8.43
2019-03-20T03:09:56.895Z,8.17
2019-03-20T03:12:25.098Z,9.87
2019-03-20T03:14:53.422Z,10.63
2019-03-20T03:17:21.638Z,8.87
2019-03-20T03:19:49.881Z,7.97
2019-03-20T03:22:18.099Z,7.77
2019-03-20T03:24:46.346Z,7.67
2019-03-20T03:27:14.565Z,6.47
2019-03-20T03:29:42.823Z,8.07
2019-03-20T03:32:11.047Z,9.80
2019-03-20T03:34:39.286Z,7.40
2019-03-20T03:37:07.506Z,7.40
2019-03-20T03:39:35.718Z,10.67
2019-03-20T03:42:04.044Z,9.70
2019-03-20T03:44:32.243Z,7.57
2019-03-20T03:47:00.489Z,8.03
2019-03-20T03:49:28.707Z,7.17
2019-03-20T03:51:56.953Z,10.17
2019-03-20T03:54:25.174Z,9.90
2019-03-20T03:56:53.889Z,13.20
2019-03-20T03:59:22.119Z,15.63
2019-03-20T04:01:50.360Z,10.93
2019-03-20T04:04:18.583Z,11.27
2019-03-20T04:06:46.889Z,7.77
2019-03-20T04:09:15.111Z,8.23
2019-03-20T04:11:43.350Z,8.50
2019-03-20T04:14:11.574Z,11.27
2019-03-20T04:16:39.824Z,10.93
2019-03-20T04:19:08.042Z,7.30
2019-03-20T04:21:36.289Z,7.53
2019-03-20T04:24:04.580Z,8.60
2019-03-20T04:26:32.825Z,10.93
2019-03-20T04:29:01.050Z,10.33
2019-03-20T04:31:29.293Z,7.37
2019-03-20T04:33:57.803Z,8.33
2019-03-20T04:36:26.160Z,10.33
2019-03-20T04:38:54.377Z,11.27
2019-03-20T04:41:22.621Z,16.47
2019-03-20T04:43:50.845Z,12.50
2019-03-20T04:46:19.093Z,11.00
2019-03-20T04:48:47.312Z,10.57
2019-03-20T04:51:15.563Z,10.83
2019-03-20T04:53:43.776Z,11.13
2019-03-20T04:56:12.021Z,7.47
2019-03-20T04:58:40.237Z,8.03
2019-03-20T05:01:08.490Z,8.23
2019-03-20T05:03:36.713Z,19.63
2019-03-20T05:06:04.928Z,10.97
2019-03-20T05:08:33.177Z,11.73
2019-03-20T05:11:01.400Z,14.47
2019-03-20T05:13:29.644Z,11.07
2019-03-20T05:15:57.865Z,11.40
2019-03-20T05:18:26.121Z,14.97
2019-03-20T05:20:54.335Z,10.07
2019-03-20T05:23:22.589Z,12.90
2019-03-20T05:25:50.810Z,9.50
2019-03-20T05:28:19.061Z,12.60
2019-03-20T05:30:47.281Z,12.20
2019-03-20T05:33:15.554Z,12.27
2019-03-20T05:35:43.844Z,15.63
2019-03-20T05:38:12.080Z,10.57
2019-03-20T05:40:40.301Z,14.77
2019-03-20T05:43:08.552Z,15.20
2019-03-20T05:45:36.773Z,9.47
2019-03-20T05:48:05.024Z,13.10
2019-03-20T05:50:33.240Z,10.33
2019-03-20T05:53:01.484Z,12.17
2019-03-20T05:55:29.708Z,13.17
2019-03-20T05:57:57.993Z,15.90
2019-03-20T06:00:27.826Z,20.00
2019-03-20T06:02:56.077Z,26.40
2019-03-20T06:05:24.437Z,16.47
2019-03-20T06:07:52.685Z,19.27
2019-03-20T06:10:20.904Z,22.40
2019-03-20T06:12:49.125Z,13.10
2019-03-20T06:15:17.369Z,14.53
2019-03-20T06:17:46.865Z,8.00
2019-03-20T06:20:15.400Z,10.70
2019-03-20T06:22:43.617Z,13.30
2019-03-20T06:25:15.365Z,12.37
2019-03-20T06:27:43.589Z,12.83
2019-03-20T06:30:15.320Z,9.63
2019-03-20T06:32:43.541Z,10.00
2019-03-20T06:35:12.152Z,9.00
2019-03-20T06:37:40.372Z,9.40
2019-03-20T06:40:10.157Z,14.03
2019-03-20T06:42:38.364Z,8.07
2019-03-20T06:45:08.156Z,10.10
2019-03-20T06:47:36.372Z,10.20
2019-03-20T06:50:06.160Z,15.03
2019-03-20T06:52:34.381Z,10.40
2019-03-20T06:55:02.802Z,11.00
2019-03-20T06:57:31.016Z,16.83
2019-03-20T07:00:00.800Z,12.90
2019-03-20T07:02:28.917Z,13.87
2019-03-20T07:05:15.441Z,10.00
2019-03-20T07:07:44.574Z,13.73
2019-03-20T07:10:17.550Z,10.93
2019-03-20T07:12:45.764Z,9.90
2019-03-20T07:15:14.010Z,18.00
2019-03-20T07:17:42.237Z,13.33
2019-03-20T07:20:10.944Z,11.60
2019-03-20T07:22:39.157Z,9.90
2019-03-20T07:25:07.977Z,13.30
2019-03-20T07:27:36.195Z,13.70
2019-03-20T07:30:06.109Z,11.70
2019-03-20T07:32:34.345Z,11.20
2019-03-20T07:35:02.601Z,14.20
2019-03-20T07:37:30.812Z,9.93
2019-03-20T07:39:59.063Z,10.03
2019-03-20T07:42:27.274Z,10.63
2019-03-20T07:44:55.520Z,27.87
2019-03-20T07:47:23.745Z,15.03
2019-03-20T07:49:51.987Z,9.20
2019-03-20T07:52:20.201Z,17.13
2019-03-20T07:54:48.445Z,11.87
2019-03-20T07:57:16.657Z,11.50
2019-03-20T07:59:44.904Z,12.83
2019-03-20T08:02:13.458Z,12.57
2019-03-20T08:04:41.717Z,12.47
2019-03-20T08:07:10.308Z,11.53
2019-03-20T08:09:38.893Z,7.53
2019-03-20T08:12:07.600Z,6.67
2019-03-20T08:14:35.813Z,6.97
2019-03-20T08:17:04.120Z,7.73
2019-03-20T08:19:32.334Z,8.43
2019-03-20T08:22:00.901Z,18.67
2019-03-20T08:24:29.452Z,8.20
2019-03-20T08:26:58.013Z,8.17
2019-03-20T08:29:26.548Z,5.77
2019-03-20T08:31:55.112Z,9.33
2019-03-20T08:34:23.653Z,7.13
2019-03-20T08:36:51.888Z,8.43
2019-03-20T08:39:20.427Z,7.63
2019-03-20T08:44:35.480Z,10.27
2019-03-20T08:47:04.151Z,10.83
2019-03-20T08:49:32.399Z,6.27
2019-03-20T08:52:01.004Z,6.20
2019-03-20T08:54:29.528Z,5.60
2019-03-20T08:56:58.096Z,8.80
2019-03-20T08:59:26.690Z,4.37
2019-03-20T09:01:55.304Z,5.97
2019-03-20T09:04:23.853Z,10.70
2019-03-20T09:06:52.416Z,10.00
2019-03-20T09:09:20.961Z,5.03
2019-03-20T09:11:49.528Z,5.00
2019-03-20T09:14:18.119Z,17.53
2019-03-20T09:16:46.720Z,6.90
2019-03-20T09:19:15.244Z,11.30
2019-03-20T09:21:43.818Z,4.33
2019-03-20T09:24:12.429Z,5.23
2019-03-20T09:26:41.001Z,11.07
2019-03-20T09:29:18.235Z,9.37
2019-03-20T09:31:39.825Z,7.03
2019-03-20T09:34:08.361Z,6.50
2019-03-20T09:36:43.120Z,3.20
2019-03-20T09:39:07.757Z,5.17
2019-03-20T09:41:36.324Z,5.67
2019-03-20T09:44:05.005Z,4.13
2019-03-20T09:46:33.584Z,3.83
2019-03-20T09:49:02.124Z,6.53
2019-03-20T09:51:30.664Z,4.90
2019-03-20T09:53:59.232Z,4.67
2019-03-20T09:56:27.445Z,2.73
2019-03-20T09:58:56.007Z,2.87
2019-03-20T10:01:25.431Z,3.77
2019-03-20T10:03:54.001Z,3.87
2019-03-20T10:06:22.537Z,6.83
2019-03-20T10:08:54.351Z,5.73
2019-03-20T10:11:21.343Z,4.30
2019-03-20T10:13:49.983Z,3.37
2019-03-20T10:16:18.468Z,5.63
2019-03-20T10:18:47.088Z,6.23
2019-03-20T10:21:15.663Z,3.97
2019-03-20T10:23:44.221Z,9.77
2019-03-20T10:26:12.488Z,2.73
2019-03-20T10:28:41.045Z,4.70
2019-03-20T10:31:09.596Z,3.20
2019-03-20T10:33:37.832Z,5.53
2019-03-20T10:36:06.377Z,3.27
2019-03-20T10:38:34.950Z,7.83
2019-03-20T10:41:03.635Z,2.90
2019-03-20T10:43:32.248Z,7.43
2019-03-20T10:46:00.507Z,6.57
2019-03-20T10:48:29.105Z,2.60
2019-03-20T10:50:57.690Z,4.13
2019-03-20T10:53:26.286Z,6.03
2019-03-20T10:55:54.868Z,3.80
2019-03-20T10:58:23.463Z,2.70
2019-03-20T11:00:52.046Z,5.13
2019-03-20T11:03:20.723Z,3.83
2019-03-20T11:05:49.368Z,8.33
2019-03-20T11:08:18.051Z,8.47
2019-03-20T11:10:46.703Z,5.90
2019-03-20T11:13:15.308Z,7.93
2019-03-20T11:15:43.884Z,5.97
2019-03-20T11:18:12.458Z,7.20
2019-03-20T11:20:41.065Z,3.03
2019-03-20T11:23:09.644Z,2.60
2019-03-20T11:25:38.243Z,3.90
2019-03-20T11:28:06.816Z,6.17
2019-03-20T11:30:35.424Z,6.70
2019-03-20T11:33:04.144Z,4.07
2019-03-20T11:35:32.813Z,4.43
2019-03-20T11:38:01.469Z,2.60
2019-03-20T11:40:40.167Z,2.43
2019-03-20T11:43:08.737Z,6.83
2019-03-20T11:45:37.349Z,5.73
2019-03-20T11:48:06.005Z,4.83
2019-03-20T11:50:46.852Z,3.90
2019-03-20T11:53:15.428Z,3.87
2019-03-20T11:55:43.712Z,7.00
2019-03-20T11:58:12.360Z,4.47
2019-03-20T12:00:41.088Z,4.27
2019-03-20T12:03:09.339Z,7.57
2019-03-20T12:05:38.013Z,2.57
2019-03-20T12:08:06.597Z,3.43
2019-03-20T12:10:35.349Z,4.13
2019-03-20T12:13:03.992Z,3.63
2019-03-20T12:15:32.669Z,2.70
2019-03-20T12:18:01.401Z,3.03
2019-03-20T12:20:29.981Z,4.93
2019-03-20T12:22:58.561Z,7.30
2019-03-20T12:25:33.889Z,4.53
2019-03-20T12:28:02.591Z,4.13
2019-03-20T12:30:33.505Z,2.73
2019-03-20T12:33:02.181Z,7.43
2019-03-20T12:35:45.345Z,5.93
2019-03-20T12:38:15.289Z,6.30
2019-03-20T12:40:44.304Z,4.20
2019-03-20T12:43:13.058Z,6.13
2019-03-20T12:45:41.728Z,2.77
2019-03-20T12:48:18.304Z,2.53
2019-03-20T12:50:46.981Z,4.87
2019-03-20T12:53:18.702Z,5.27
2019-03-20T12:55:47.313Z,5.33
2019-03-20T12:58:15.889Z,3.30
2019-03-20T13:05:40.350Z,5.27
2019-03-20T13:08:08.953Z,8.63
2019-03-20T13:10:37.533Z,4.97
2019-03-20T13:13:06.224Z,4.57
2019-03-20T13:15:34.932Z,4.27
2019-03-20T13:18:03.531Z,4.43
2019-03-20T13:20:32.120Z,4.90
2019-03-20T13:23:06.900Z,9.93
2019-03-20T13:25:35.615Z,4.20
2019-03-20T13:28:04.561Z,2.53
2019-03-20T13:31:00.251Z,4.60
2019-03-20T13:33:28.851Z,5.23
2019-03-20T13:35:57.429Z,9.30
2019-03-20T13:38:26.173Z,4.43
2019-03-20T13:40:54.752Z,4.87
2019-03-20T13:43:23.357Z,5.60
2019-03-20T13:45:52.004Z,5.83
2019-03-20T13:48:20.608Z,3.70
2019-03-20T13:50:49.256Z,6.50
2019-03-20T13:53:17.540Z,2.67
2019-03-20T13:55:46.121Z,10.13
2019-03-20T13:58:14.724Z,6.70
2019-03-20T14:00:43.508Z,9.63
2019-03-20T14:03:12.116Z,11.00
2019-03-20T14:05:40.716Z,3.47
2019-03-20T14:08:09.304Z,4.47
2019-03-20T14:10:49.611Z,5.27
2019-03-20T14:13:08.316Z,3.23
2019-03-20T14:15:37.032Z,7.33
2019-03-20T14:18:05.779Z,3.40
2019-03-20T14:20:34.436Z,5.80
2019-03-20T14:23:03.048Z,10.97
2019-03-20T14:25:31.623Z,4.47
2019-03-20T14:28:00.232Z,3.50
2019-03-20T14:30:33.065Z,2.57
2019-03-20T14:33:01.825Z,3.87
2019-03-20T14:35:30.472Z,13.07
2019-03-20T14:37:59.083Z,12.80
2019-03-20T14:40:36.094Z,6.03
2019-03-20T14:43:00.136Z,3.23
2019-03-20T14:45:28.782Z,5.07
2019-03-20T14:47:57.560Z,5.83
2019-03-20T14:50:28.244Z,3.97
2019-03-20T14:52:56.934Z,3.97
2019-03-20T14:55:25.653Z,6.00
2019-03-20T14:57:54.296Z,9.03
2019-03-20T15:00:27.725Z,2.77
2019-03-20T15:02:56.446Z,5.63
2019-03-20T15:05:25.192Z,4.43
2019-03-20T15:07:53.844Z,3.37
2019-03-20T15:10:26.286Z,4.67
2019-03-20T15:12:55.599Z,4.70
2019-03-20T15:15:36.403Z,6.27
2019-03-20T15:18:06.129Z,4.43
2019-03-20T15:20:34.804Z,4.50
2019-03-20T15:23:03.068Z,4.90
2019-03-20T15:25:31.675Z,9.27
2019-03-20T15:28:00.319Z,3.50
2019-03-20T15:30:29.792Z,4.90
2019-03-20T15:32:58.551Z,8.03
2019-03-20T15:35:27.230Z,4.90
2019-03-20T15:37:55.803Z,3.23
2019-03-20T15:40:31.231Z,6.87
2019-03-20T15:42:59.880Z,8.73
2019-03-20T15:45:28.568Z,8.80
2019-03-20T15:47:57.196Z,4.30
2019-03-20T15:50:27.397Z,6.07
2019-03-20T15:52:56.046Z,2.67
2019-03-20T15:55:35.908Z,4.67
2019-03-20T15:58:04.728Z,5.57
2019-03-20T16:00:33.341Z,5.90
2019-03-20T16:03:05.058Z,6.53
2019-03-20T16:05:33.677Z,5.13
2019-03-20T16:08:01.990Z,3.90
2019-03-20T16:10:30.596Z,4.37
2019-03-20T16:12:59.308Z,6.40
2019-03-20T16:15:27.985Z,4.03
2019-03-20T16:17:56.565Z,2.60
2019-03-20T16:20:25.233Z,7.50
2019-03-20T16:22:53.807Z,8.93
2019-03-20T16:25:23.546Z,6.47
2019-03-20T16:27:52.392Z,4.97
2019-03-20T16:30:23.599Z,7.57
2019-03-20T16:32:52.321Z,10.33
2019-03-20T16:35:21.064Z,7.10
2019-03-20T16:37:49.711Z,6.17
2019-03-20T16:40:20.837Z,4.80
2019-03-20T16:42:49.578Z,8.53
2019-03-20T16:45:23.544Z,7.57
2019-03-20T16:47:51.799Z,10.90
2019-03-20T16:50:20.649Z,9.03
2019-03-20T16:52:49.287Z,6.20
2019-03-20T16:55:17.903Z,4.20
2019-03-20T16:57:46.540Z,4.13
2019-03-20T17:00:31.684Z,5.63
2019-03-20T17:03:00.396Z,9.80
2019-03-20T17:05:30.349Z,6.87
2019-03-20T17:07:58.602Z,8.70
2019-03-20T17:10:35.848Z,6.47
2019-03-20T17:13:05.536Z,8.83
2019-03-20T17:15:41.703Z,6.17
2019-03-20T17:18:10.420Z,3.20
2019-03-20T17:20:39.036Z,3.07
2019-03-20T17:23:08.123Z,6.33
2019-03-20T17:25:36.847Z,19.87
2019-03-20T17:28:06.472Z,19.10
2019-03-20T17:30:35.900Z,18.67
2019-03-20T17:33:05.548Z,14.87
2019-03-20T17:35:34.187Z,9.80
2019-03-20T17:38:02.468Z,8.10
2019-03-20T17:40:31.127Z,20.97
2019-03-20T17:42:59.795Z,15.30
2019-03-20T17:45:29.715Z,10.47
2019-03-20T17:47:58.392Z,13.30
2019-03-20T17:50:33.727Z,10.93
2019-03-20T17:53:03.178Z,9.20
2019-03-20T17:55:31.820Z,12.67
2019-03-20T17:58:00.496Z,10.53
2019-03-20T18:00:53.255Z,13.33
2019-03-20T18:03:21.856Z,8.27
2019-03-20T18:05:50.441Z,14.33
2019-03-20T18:08:19.042Z,7.57
2019-03-20T18:10:47.623Z,6.10
2019-03-20T18:13:16.224Z,6.63
2019-03-20T18:15:45.646Z,8.70
2019-03-20T18:18:14.375Z,9.77
2019-03-20T18:20:43.027Z,9.60
2019-03-20T18:23:11.773Z,8.97
2019-03-20T18:25:40.343Z,8.10
2019-03-20T18:28:08.948Z,9.67
2019-03-20T18:30:42.312Z,4.30
2019-03-20T18:33:10.983Z,3.27
2019-03-20T18:35:39.562Z,4.53
2019-03-20T18:38:08.812Z,5.87
2019-03-20T18:40:37.383Z,12.63
2019-03-20T18:43:06.079Z,5.17
2019-03-20T18:45:34.614Z,8.90
2019-03-20T18:48:02.853Z,6.13
2019-03-20T18:50:31.439Z,9.80
2019-03-20T18:53:00.061Z,10.77
2019-03-20T18:55:28.601Z,10.37
2019-03-20T18:57:57.332Z,4.87
2019-03-20T19:00:27.518Z,9.97
2019-03-20T19:02:58.689Z,7.83
2019-03-20T19:05:45.570Z,10.00
2019-03-20T19:08:14.359Z,10.47
2019-03-20T19:10:43.005Z,5.90
2019-03-20T19:13:11.547Z,5.63
2019-03-20T19:15:40.128Z,5.73
2019-03-20T19:18:08.770Z,7.20
2019-03-20T19:20:37.376Z,4.43
2019-03-20T19:23:05.945Z,12.83
2019-03-20T19:25:34.485Z,7.40
2019-03-20T19:28:03.094Z,8.13
2019-03-20T19:30:31.669Z,12.03
2019-03-20T19:33:00.271Z,6.17
2019-03-20T19:35:28.834Z,11.13
2019-03-20T19:37:57.373Z,5.90
2019-03-20T19:40:25.941Z,8.57
2019-03-20T19:42:54.225Z,6.97
2019-03-20T19:45:22.856Z,9.13
2019-03-20T19:47:51.533Z,9.80
2019-03-20T19:50:24.085Z,7.70
2019-03-20T19:52:52.763Z,6.07
2019-03-20T19:55:21.480Z,10.87
2019-03-20T19:57:50.085Z,7.60
2019-03-20T20:00:28.103Z,13.43
2019-03-20T20:02:56.714Z,10.60
2019-03-20T20:05:25.349Z,9.60
2019-03-20T20:07:53.897Z,11.07
2019-03-20T20:10:22.475Z,11.57
2019-03-20T20:12:51.013Z,13.63
2019-03-20T20:15:27.089Z,5.40
2019-03-20T20:17:55.374Z,4.03
2019-03-20T20:20:25.481Z,4.70
2019-03-20T20:22:54.012Z,9.10
2019-03-20T20:25:22.582Z,8.53
2019-03-20T20:27:51.190Z,6.50
2019-03-20T20:30:20.442Z,8.13
2019-03-20T20:32:49.045Z,16.13
2019-03-20T20:35:17.949Z,5.30
2019-03-20T20:37:47.424Z,4.30
2019-03-20T20:40:24.857Z,6.33
2019-03-20T20:42:53.397Z,5.73
2019-03-20T20:45:22.033Z,10.63
2019-03-20T20:47:50.708Z,10.35
2019-03-20T20:50:19.425Z,14.77
2019-03-20T20:52:47.709Z,15.23
2019-03-20T20:55:18.690Z,11.07
2019-03-20T20:57:47.303Z,7.07
2019-03-20T21:00:21.033Z,12.67
2019-03-20T21:02:50.009Z,8.00
2019-03-20T21:05:37.593Z,12.10
2019-03-20T21:08:06.132Z,6.27
2019-03-20T21:10:34.705Z,7.27
2019-03-20T21:13:02.985Z,14.90
2019-03-20T21:15:38.501Z,8.07
2019-03-20T21:18:15.971Z,6.63
2019-03-20T21:20:44.980Z,15.47
2019-03-20T21:23:37.890Z,7.27
2019-03-20T21:26:22.937Z,8.80
2019-03-20T21:28:52.691Z,6.30
2019-03-20T21:31:22.600Z,5.43
2019-03-20T21:33:52.357Z,10.67
2019-03-20T21:36:43.537Z,9.60
2019-03-20T21:39:11.752Z,6.77
2019-03-20T21:41:50.754Z,7.83
2019-03-20T21:44:36.988Z,5.17
2019-03-20T21:47:09.455Z,6.33
2019-03-20T21:49:37.669Z,4.47
2019-03-20T21:52:05.909Z,5.77
2019-03-20T21:54:44.448Z,6.93
2019-03-20T21:57:14.220Z,7.87
2019-03-20T21:59:50.176Z,5.70
2019-03-20T22:02:19.955Z,8.70
2019-03-20T22:04:48.668Z,6.33
2019-03-20T22:07:17.234Z,6.53
2019-03-20T22:09:54.611Z,6.43
2019-03-20T22:12:45.720Z,8.60
2019-03-20T22:15:26.460Z,4.37
2019-03-20T22:18:31.281Z,5.67
2019-03-20T22:21:01.075Z,4.67
2019-03-20T22:23:39.789Z,5.10
2019-03-20T22:26:15.224Z,5.77
2019-03-20T22:29:03.169Z,14.03
2019-03-20T22:31:32.922Z,7.23
2019-03-20T22:34:19.364Z,7.20
2019-03-20T22:36:47.607Z,7.93
2019-03-20T22:39:34.001Z,7.37
2019-03-20T22:42:03.775Z,5.03
2019-03-20T22:44:32.455Z,5.37
2019-03-20T22:47:02.233Z,10.00
2019-03-20T22:49:31.988Z,7.20
2019-03-20T22:52:20.078Z,5.30
2019-03-20T22:55:08.217Z,5.93
2019-03-20T22:57:40.951Z,5.03
2019-03-20T23:00:09.935Z,5.70
2019-03-20T23:02:44.380Z,12.50
2019-03-20T23:05:12.595Z,14.27
2019-03-20T23:07:40.840Z,10.20
2019-03-20T23:10:13.735Z,5.63
2019-03-20T23:12:41.977Z,5.67
2019-03-20T23:15:12.061Z,5.87
2019-03-20T23:17:40.299Z,10.37
2019-03-20T23:20:10.049Z,5.20
2019-03-20T23:22:38.299Z,8.87
2019-03-20T23:25:08.045Z,7.33
2019-03-20T23:27:36.258Z,5.93
2019-03-20T23:30:06.036Z,4.80
2019-03-20T23:32:34.244Z,6.20
2019-03-20T23:35:02.488Z,10.37
2019-03-20T23:37:30.696Z,8.40
2019-03-20T23:39:58.933Z,4.70
2019-03-20T23:42:27.136Z,5.67
2019-03-20T23:44:55.388Z,6.70
2019-03-20T23:47:25.132Z,6.67
2019-03-20T23:49:53.372Z,8.63
2019-03-20T23:52:21.586Z,9.67
2019-03-20T23:54:49.828Z,15.00
2019-03-20T23:57:18.049Z,5.77
2019-03-20T23:59:46.292Z,7.40
